Time;durP1;ratioP1;P1;durP2;ratioP2;P2;SDS_P1;SDS_P2;PMS_P1;PMS_P2;Temp;Humidity;BMP_temperature;BMP_pressure;BME280_temperature;BME280_humidity;BME280_pressure;Samples;Min_cycle;Max_cycle;Signal;HPM_P1;HPM_P2
2022/04/07 00:00:20;;;;;;;8.33;6.43;;;;;;;10.04;nan;-24097.44;4958188;28;20185;-72
2022/04/07 00:02:46;;;;;;;8.93;6.47;;;;;;;10.16;nan;-24100.97;4958258;28;20191;-72
2022/04/07 00:05:11;;;;;;;10.23;5.90;;;;;;;9.67;nan;-24087.28;4975239;28;20185;-71
2022/04/07 00:07:37;;;;;;;9.40;6.23;;;;;;;9.99;nan;-24096.16;4975256;28;20185;-71
2022/04/07 00:10:03;;;;;;;10.13;6.30;;;;;;;10.10;nan;-24099.13;4975169;28;20209;-70
2022/04/07 00:12:29;;;;;;;11.13;6.10;;;;;;;10.25;nan;-24103.22;4975489;28;20177;-72
2022/04/07 00:14:55;;;;;;;8.33;6.10;;;;;;;10.10;nan;-24099.13;4975530;28;20538;-72
2022/04/07 00:17:20;;;;;;;9.47;6.70;;;;;;;9.73;nan;-24088.97;4973939;28;20243;-72
2022/04/07 00:19:46;;;;;;;8.67;6.00;;;;;;;10.24;nan;-24103.09;4974943;28;20184;-72
2022/04/07 00:22:11;;;;;;;11.57;6.40;;;;;;;9.94;nan;-24094.63;4974938;28;20185;-72
2022/04/07 00:24:37;;;;;;;9.60;6.37;;;;;;;10.28;nan;-24104.06;4974865;28;20638;-72
2022/04/07 00:27:02;;;;;;;8.87;6.63;;;;;;;9.99;nan;-24096.03;4975093;28;20708;-72
2022/04/07 00:29:28;;;;;;;8.87;6.17;;;;;;;10.25;nan;-24103.38;4972209;28;20194;-72
2022/04/07 00:31:57;;;;;;;10.40;6.30;;;;;;;9.96;nan;-24095.19;4960498;28;20265;-72
2022/04/07 00:34:23;;;;;;;10.53;6.47;;;;;;;10.10;nan;-24099.28;4967375;28;20193;-72
2022/04/07 00:36:49;;;;;;;8.70;6.10;;;;;;;10.11;nan;-24099.56;4955315;29;20518;-72
2022/04/07 00:39:14;;;;;;;10.07;6.60;;;;;;;10.21;nan;-24102.25;4968021;28;20316;-72
2022/04/07 00:41:42;;;;;;;9.87;6.33;;;;;;;9.80;nan;-24090.81;4974957;28;20248;-71
2022/04/07 00:44:08;;;;;;;11.97;6.97;;;;;;;9.79;nan;-24090.53;4976339;28;20316;-72
2022/04/07 00:46:38;;;;;;;8.67;6.63;;;;;;;10.05;nan;-24097.72;4979932;28;20173;-72
2022/04/07 00:49:03;;;;;;;9.73;7.20;;;;;;;9.92;nan;-24094.19;4978081;28;20201;-72
2022/04/07 00:51:29;;;;;;;10.40;7.10;;;;;;;9.95;nan;-24095.03;4988237;28;20281;-72
2022/04/07 00:53:55;;;;;;;10.50;6.70;;;;;;;9.63;nan;-24086.00;4977704;28;20212;-73
2022/04/07 00:56:20;;;;;;;7.40;6.33;;;;;;;9.70;nan;-24087.97;4966883;28;20627;-72
2022/04/07 00:58:47;;;;;;;8.90;6.57;;;;;;;9.56;nan;-24084.16;4955086;28;20182;-72
2022/04/07 01:01:13;;;;;;;8.87;6.67;;;;;;;9.39;nan;-24079.34;4954503;28;20241;-71
2022/04/07 01:03:38;;;;;;;10.60;7.03;;;;;;;9.30;nan;-24076.81;4968485;28;20313;-72
2022/04/07 01:06:04;;;;;;;11.00;7.60;;;;;;;9.63;nan;-24086.13;4959047;28;20265;-72
2022/04/07 01:08:30;;;;;;;12.47;7.20;;;;;;;9.22;nan;-24074.56;4955323;28;20264;-72
2022/04/07 01:10:55;;;;;;;10.63;7.17;;;;;;;9.52;nan;-24082.91;4973982;28;20257;-72
2022/04/07 01:13:21;;;;;;;11.03;7.33;;;;;;;9.15;nan;-24072.72;4974045;28;20243;-73
2022/04/07 01:15:47;;;;;;;12.00;7.40;;;;;;;9.21;nan;-24074.25;4973920;28;20316;-72
2022/04/07 01:18:14;;;;;;;10.07;6.90;;;;;;;9.49;nan;-24082.03;4974134;28;20176;-72
2022/04/07 01:20:40;;;;;;;10.87;7.60;;;;;;;9.55;nan;-24083.88;4973744;28;20199;-72
2022/04/07 01:23:07;;;;;;;11.30;7.77;;;;;;;9.35;nan;-24078.22;4974244;28;20174;-72
2022/04/07 01:25:33;;;;;;;8.53;7.10;;;;;;;9.73;nan;-24088.81;4972483;28;20173;-72
2022/04/07 01:27:58;;;;;;;13.80;7.37;;;;;;;9.86;nan;-24092.34;4974224;28;20180;-72
2022/04/07 01:30:24;;;;;;;12.20;8.03;;;;;;;9.41;nan;-24079.78;4973757;28;20667;-72
2022/04/07 01:32:56;;;;;;;12.77;7.93;;;;;;;9.18;nan;-24073.41;4974085;28;20231;-73
2022/04/07 01:35:22;;;;;;;14.73;7.63;;;;;;;9.22;nan;-24074.56;4973889;28;20180;-72
2022/04/07 01:37:49;;;;;;;10.70;7.80;;;;;;;9.31;nan;-24077.09;4973978;28;20633;-72
2022/04/07 01:40:16;;;;;;;13.50;7.80;;;;;;;8.99;nan;-24068.19;4973921;28;20256;-71
2022/04/07 01:42:45;;;;;;;11.77;8.20;;;;;;;8.96;nan;-24067.34;4973718;28;20174;-73
2022/04/07 01:45:11;;;;;;;10.87;7.87;;;;;;;9.26;nan;-24075.69;4973825;28;20169;-72
2022/04/07 01:47:39;;;;;;;10.77;7.97;;;;;;;9.50;nan;-24082.47;4973537;28;20169;-72
2022/04/07 01:50:06;;;;;;;10.27;8.17;;;;;;;9.28;nan;-24076.38;4956684;28;20667;-72
2022/04/07 01:52:32;;;;;;;11.60;8.47;;;;;;;9.33;nan;-24077.66;4974296;28;20228;-72
2022/04/07 01:55:02;;;;;;;12.00;8.63;;;;;;;9.46;nan;-24081.19;4973573;28;20179;-72
2022/04/07 01:57:28;;;;;;;11.63;7.83;;;;;;;8.81;nan;-24063.09;4973674;28;20181;-72
2022/04/07 01:59:54;;;;;;;13.07;9.23;;;;;;;9.08;nan;-24070.59;4973590;28;20181;-72
2022/04/07 02:02:21;;;;;;;12.27;8.43;;;;;;;9.01;nan;-24068.63;4973274;28;20716;-73
2022/04/07 02:04:58;;;;;;;12.63;8.30;;;;;;;9.12;nan;-24071.72;4973538;28;20177;-72
2022/04/07 02:07:31;;;;;;;12.10;8.50;;;;;;;8.73;nan;-24060.97;4973683;28;20169;-72
2022/04/07 02:09:57;;;;;;;15.30;8.97;;;;;;;8.61;nan;-24057.56;4973480;28;20212;-72
2022/04/07 02:12:23;;;;;;;13.53;9.50;;;;;;;9.02;nan;-24068.91;4973179;28;20177;-72
2022/04/07 02:14:49;;;;;;;13.83;8.23;;;;;;;8.92;nan;-24066.22;4972980;28;20173;-72
2022/04/07 02:17:20;;;;;;;13.80;8.67;;;;;;;8.98;nan;-24067.75;4973271;28;20606;-72
2022/04/07 02:19:47;;;;;;;14.60;8.90;;;;;;;8.56;nan;-24056.16;4973881;28;20236;-72
2022/04/07 02:22:13;;;;;;;14.40;9.63;;;;;;;9.02;nan;-24069.03;4973227;28;20266;-72
2022/04/07 02:24:40;;;;;;;12.77;9.20;;;;;;;9.24;nan;-24075.13;4955516;28;20263;-71
2022/04/07 02:27:06;;;;;;;17.83;9.40;;;;;;;8.60;nan;-24057.16;4973021;28;20166;-72
2022/04/07 02:29:31;;;;;;;12.77;9.37;;;;;;;8.97;nan;-24067.47;4972875;28;20705;-71
2022/04/07 02:31:57;;;;;;;11.60;9.27;;;;;;;9.02;nan;-24068.91;4972946;28;20216;-72
2022/04/07 02:34:22;;;;;;;15.00;9.47;;;;;;;8.58;nan;-24056.59;4972975;28;20189;-72
2022/04/07 02:36:47;;;;;;;13.17;8.83;;;;;;;8.49;nan;-24054.19;4972921;28;20646;-73
2022/04/07 02:39:13;;;;;;;13.47;9.53;;;;;;;8.67;nan;-24059.28;4973108;28;20270;-72
2022/04/07 02:41:38;;;;;;;15.17;10.00;;;;;;;8.49;nan;-24054.19;4975410;28;20671;-72
2022/04/07 02:44:04;;;;;;;15.73;10.07;;;;;;;8.12;nan;-24043.84;4976672;28;20176;-72
2022/04/07 02:46:29;;;;;;;14.73;10.17;;;;;;;8.47;nan;-24053.63;4959635;28;20173;-72
2022/04/07 02:48:54;;;;;;;12.83;10.13;;;;;;;8.65;nan;-24058.56;4960339;28;20326;-72
2022/04/07 02:51:20;;;;;;;12.80;9.87;;;;;;;8.93;nan;-24066.34;4956927;28;20271;-72
2022/04/07 02:53:45;;;;;;;20.03;10.50;;;;;;;8.84;nan;-24063.94;4957452;29;20184;-72
2022/04/07 02:56:10;;;;;;;12.63;9.77;;;;;;;8.51;nan;-24054.75;4963003;28;20542;-72
2022/04/07 02:58:36;;;;;;;16.03;10.50;;;;;;;8.65;nan;-24058.56;4976633;28;20191;-72
2022/04/07 03:01:01;;;;;;;15.33;10.40;;;;;;;8.92;nan;-24066.06;4976743;28;20306;-71
2022/04/07 03:03:27;;;;;;;16.63;10.40;;;;;;;8.91;nan;-24065.94;4976302;28;20174;-72
2022/04/07 03:05:52;;;;;;;19.00;10.40;;;;;;;9.00;nan;-24068.47;4976588;28;20649;-72
2022/04/07 03:08:17;;;;;;;15.50;10.03;;;;;;;8.99;nan;-24068.19;4976863;28;20177;-72
2022/04/07 03:10:43;;;;;;;15.20;10.30;;;;;;;9.04;nan;-24069.47;4976569;28;20204;-72
2022/04/07 03:13:08;;;;;;;14.50;10.53;;;;;;;8.80;nan;-24062.81;4976315;28;20240;-72
2022/04/07 03:15:34;;;;;;;15.40;9.93;;;;;;;9.39;nan;-24079.34;4976653;28;20603;-72
2022/04/07 03:17:59;;;;;;;14.77;10.20;;;;;;;9.04;nan;-24069.47;4976610;28;20260;-72
2022/04/07 03:20:25;;;;;;;15.50;9.57;;;;;;;9.31;nan;-24077.09;4976142;28;20767;-72
2022/04/07 03:22:50;;;;;;;13.80;10.03;;;;;;;8.97;nan;-24067.47;4954808;28;20190;-72
2022/04/07 03:25:15;;;;;;;13.83;9.70;;;;;;;8.87;nan;-24064.78;4951436;28;20664;-72
2022/04/07 03:27:41;;;;;;;13.60;10.20;;;;;;;8.81;nan;-24063.25;4951508;28;20193;-73
2022/04/07 03:30:07;;;;;;;13.87;9.70;;;;;;;8.75;nan;-24061.53;4950906;28;20201;-73
2022/04/07 03:32:32;;;;;;;13.63;9.93;;;;;;;8.74;nan;-24061.25;4951892;28;20182;-73
2022/04/07 03:34:58;;;;;;;15.67;9.77;;;;;;;9.18;nan;-24073.41;4951465;28;20182;-73
2022/04/07 03:37:23;;;;;;;15.73;10.50;;;;;;;9.14;nan;-24072.28;4950801;28;20178;-73
2022/04/07 03:39:49;;;;;;;14.77;10.03;;;;;;;9.20;nan;-24074.00;4950887;28;20281;-72
2022/04/07 03:42:15;;;;;;;13.70;9.97;;;;;;;9.05;nan;-24069.75;4950843;28;20197;-73
2022/04/07 03:44:41;;;;;;;15.57;10.00;;;;;;;9.11;nan;-24071.59;4951247;28;20182;-73
2022/04/07 03:47:06;;;;;;;16.80;9.47;;;;;;;8.86;nan;-24064.66;4957991;28;20638;-73
2022/04/07 03:49:32;;;;;;;15.57;9.93;;;;;;;8.96;nan;-24067.19;4950987;28;20198;-72
2022/04/07 03:51:57;;;;;;;16.63;9.57;;;;;;;9.08;nan;-24070.59;4950964;28;20182;-73
2022/04/07 03:54:24;;;;;;;14.27;9.67;;;;;;;8.79;nan;-24062.53;4950954;28;20262;-73
2022/04/07 03:56:50;;;;;;;16.07;9.97;;;;;;;9.05;nan;-24069.75;4950681;28;20631;-72
2022/04/07 03:59:15;;;;;;;16.23;10.47;;;;;;;9.09;nan;-24071.03;4950720;28;20190;-73
2022/04/07 04:01:41;;;;;;;15.27;9.33;;;;;;;8.91;nan;-24065.78;4950282;28;20182;-73
2022/04/07 04:04:06;;;;;;;13.30;9.47;;;;;;;9.02;nan;-24068.91;4950410;28;20193;-72
2022/04/07 04:06:33;;;;;;;13.47;9.77;;;;;;;9.25;nan;-24075.53;4950971;28;20192;-72
2022/04/07 04:08:58;;;;;;;16.63;9.53;;;;;;;9.24;nan;-24075.25;4950442;28;20673;-73
2022/04/07 04:11:24;;;;;;;16.87;9.93;;;;;;;8.95;nan;-24067.06;4950097;28;20189;-73
2022/04/07 04:13:49;;;;;;;17.70;10.87;;;;;;;9.12;nan;-24071.72;4950471;28;20186;-73
2022/04/07 04:16:17;;;;;;;16.27;11.10;;;;;;;9.18;nan;-24073.41;4951281;28;20201;-72
2022/04/07 04:18:43;;;;;;;19.40;10.67;;;;;;;8.95;nan;-24067.06;4950624;28;20218;-74
2022/04/07 04:21:09;;;;;;;17.03;10.60;;;;;;;8.88;nan;-24065.22;4949354;28;20193;-74
2022/04/07 04:23:35;;;;;;;20.27;11.63;;;;;;;9.25;nan;-24075.41;4939521;29;20186;-73
2022/04/07 04:26:01;;;;;;;16.97;10.77;;;;;;;9.51;nan;-24082.75;4954280;28;20553;-73
2022/04/07 04:28:27;;;;;;;14.73;10.20;;;;;;;9.17;nan;-24073.13;4956646;28;20182;-71
2022/04/07 04:30:53;;;;;;;18.13;10.00;;;;;;;9.24;nan;-24075.13;4955039;29;20584;-72
2022/04/07 04:33:19;;;;;;;18.43;10.80;;;;;;;9.39;nan;-24079.34;4956131;28;20545;-71
2022/04/07 04:35:44;;;;;;;16.47;10.83;;;;;;;9.40;nan;-24079.63;4937395;29;20221;-72
2022/04/07 04:38:10;;;;;;;19.20;11.20;;;;;;;9.23;nan;-24074.84;4954750;29;20181;-73
2022/04/07 04:40:35;;;;;;;18.33;9.93;;;;;;;9.44;nan;-24080.63;4954189;29;20190;-73
2022/04/07 04:43:01;;;;;;;17.17;10.50;;;;;;;9.51;nan;-24082.59;4954685;29;20178;-71
2022/04/07 04:45:26;;;;;;;18.07;10.97;;;;;;;9.46;nan;-24081.34;4954589;29;20273;-72
2022/04/07 04:47:52;;;;;;;17.70;10.90;;;;;;;9.19;nan;-24073.72;4966763;28;20221;-72
2022/04/07 04:50:18;;;;;;;16.13;10.50;;;;;;;8.91;nan;-24065.94;4973779;28;20279;-72
2022/04/07 04:52:44;;;;;;;18.23;11.03;;;;;;;9.49;nan;-24082.19;4973905;28;20639;-72
2022/04/07 04:55:09;;;;;;;19.93;11.03;;;;;;;9.38;nan;-24078.94;4973905;28;20177;-72
2022/04/07 04:57:35;;;;;;;16.83;10.83;;;;;;;9.53;nan;-24083.31;4974260;28;20180;-72
2022/04/07 05:00:02;;;;;;;16.77;10.83;;;;;;;10.24;nan;-24103.09;4974144;28;20181;-72
2022/04/07 05:02:27;;;;;;;17.97;10.70;;;;;;;10.47;nan;-24109.59;4974302;28;20158;-73
2022/04/07 05:04:52;;;;;;;16.10;10.63;;;;;;;10.25;nan;-24103.38;4973886;28;20268;-72
2022/04/07 05:07:18;;;;;;;15.97;10.97;;;;;;;10.59;nan;-24112.81;4956524;28;20656;-73
2022/04/07 05:09:43;;;;;;;18.40;10.90;;;;;;;10.58;nan;-24112.69;4956398;28;20190;-72
2022/04/07 05:12:09;;;;;;;19.40;11.00;;;;;;;10.52;nan;-24110.84;4942686;28;20260;-73
2022/04/07 05:14:34;;;;;;;19.53;10.87;;;;;;;10.93;nan;-24122.41;4939457;29;20206;-72
2022/04/07 05:17:00;;;;;;;17.27;11.13;;;;;;;10.66;nan;-24114.66;4940256;29;20178;-73
2022/04/07 05:19:25;;;;;;;18.70;10.97;;;;;;;10.88;nan;-24121.00;4941272;29;20207;-72
2022/04/07 05:21:50;;;;;;;17.93;11.13;;;;;;;10.95;nan;-24122.84;4941921;29;20575;-72
2022/04/07 05:24:17;;;;;;;16.27;11.00;;;;;;;11.33;nan;-24133.56;4940862;28;20967;-72
2022/04/07 05:26:44;;;;;;;18.13;11.57;;;;;;;11.65;nan;-24142.44;4942721;29;20666;-72
2022/04/07 05:29:09;;;;;;;22.53;11.10;;;;;;;11.71;nan;-24144.13;4940620;28;20197;-72
2022/04/07 05:31:35;;;;;;;21.03;11.23;;;;;;;11.87;nan;-24148.63;4948331;28;20205;-73
2022/04/07 05:34:00;;;;;;;18.00;10.30;;;;;;;11.77;nan;-24145.81;4939764;29;20189;-73
2022/04/07 05:36:27;;;;;;;15.60;11.10;;;;;;;11.77;nan;-24145.81;4940608;29;20190;-73
2022/04/07 05:38:52;;;;;;;21.23;11.00;;;;;;;12.16;nan;-24156.53;4941122;29;20178;-73
2022/04/07 05:41:18;;;;;;;18.13;11.65;;;;;;;11.84;nan;-24147.66;4941450;29;20194;-72
2022/04/07 05:43:44;;;;;;;20.87;11.33;;;;;;;11.80;nan;-24146.66;4944291;29;21878;-73
2022/04/07 05:46:12;;;;;;;16.23;10.93;;;;;;;11.59;nan;-24140.75;4944011;29;20182;-73
2022/04/07 05:48:38;;;;;;;17.03;11.33;;;;;;;11.56;nan;-24139.75;4949062;29;20193;-73
2022/04/07 05:51:05;;;;;;;21.07;11.60;;;;;;;11.60;nan;-24140.88;4945944;29;20233;-73
2022/04/07 05:53:30;;;;;;;19.37;12.50;;;;;;;11.67;nan;-24143.00;4943524;29;20265;-73
2022/04/07 05:55:59;;;;;;;17.77;11.60;;;;;;;11.66;nan;-24142.72;4955650;28;20182;-73
2022/04/07 05:58:25;;;;;;;20.17;11.77;;;;;;;11.27;nan;-24131.72;4967286;28;20190;-73
2022/04/07 06:00:52;;;;;;;19.08;11.90;;;;;;;11.13;nan;-24127.78;4982503;28;20201;-73
2022/04/07 06:03:17;;;;;;;23.00;12.43;;;;;;;11.62;nan;-24141.59;4942209;29;20201;-73
2022/04/07 06:05:42;;;;;;;20.17;11.80;;;;;;;11.63;nan;-24141.72;4939458;29;20182;-73
2022/04/07 06:08:08;;;;;;;23.05;11.60;;;;;;;11.77;nan;-24145.69;4940449;29;20178;-73
2022/04/07 06:10:34;;;;;;;21.42;12.18;;;;;;;11.09;nan;-24126.78;4939548;29;20225;-73
2022/04/07 06:13:00;;;;;;;21.90;11.85;;;;;;;11.15;nan;-24128.47;4943408;29;20244;-73
2022/04/07 06:15:25;;;;;;;18.08;12.43;;;;;;;11.52;nan;-24138.91;4940910;28;20687;-73
2022/04/07 06:17:52;;;;;;;20.55;12.20;;;;;;;11.40;nan;-24135.53;4941114;29;20190;-72
2022/04/07 06:20:18;;;;;;;18.98;12.38;;;;;;;11.88;nan;-24148.91;4944641;29;20277;-71
2022/04/07 06:22:44;;;;;;;21.13;12.68;;;;;;;11.62;nan;-24141.44;4944355;28;20204;-73
2022/04/07 06:25:10;;;;;;;19.88;11.43;;;;;;;12.13;nan;-24155.66;4944160;29;20193;-71
2022/04/07 06:27:46;;;;;;;17.90;11.90;;;;;;;12.02;nan;-24152.56;4943013;29;20194;-73
2022/04/07 06:30:17;;;;;;;20.73;12.07;;;;;;;11.92;nan;-24149.91;4943043;29;20272;-73
2022/04/07 06:32:44;;;;;;;16.50;11.57;;;;;;;11.56;nan;-24139.91;4943745;29;20178;-73
2022/04/07 06:35:11;;;;;;;20.27;11.70;;;;;;;11.17;nan;-24128.91;4941883;29;20236;-73
2022/04/07 06:37:51;;;;;;;21.75;11.38;;;;;;;11.69;nan;-24143.41;4942418;29;20174;-73
2022/04/07 06:40:19;;;;;;;21.05;11.90;;;;;;;11.81;nan;-24146.94;4944231;29;20205;-72
2022/04/07 06:42:44;;;;;;;17.65;12.20;;;;;;;12.28;nan;-24159.91;4943106;29;20189;-72
2022/04/07 06:45:10;;;;;;;17.27;11.45;;;;;;;12.15;nan;-24156.25;4939910;29;20186;-73
2022/04/07 06:47:38;;;;;;;17.27;11.45;;;;;;;12.22;nan;-24158.22;4942385;29;20596;-72
2022/04/07 06:50:08;;;;;;;26.20;11.43;;;;;;;12.49;nan;-24165.66;4944548;28;20233;-72
2022/04/07 06:52:34;;;;;;;19.80;11.65;;;;;;;12.65;nan;-24170.16;4936019;28;20292;-72
2022/04/07 06:54:59;;;;;;;24.48;11.93;;;;;;;13.11;nan;-24183.09;4955691;28;20281;-73
2022/04/07 06:57:25;;;;;;;19.13;11.38;;;;;;;12.98;nan;-24179.31;4932869;28;20591;-72
2022/04/07 06:59:50;;;;;;;18.48;11.70;;;;;;;12.76;nan;-24173.41;4948987;28;20276;-73
2022/04/07 07:02:16;;;;;;;17.58;11.65;;;;;;;12.77;nan;-24173.53;4948427;28;20674;-73
2022/04/07 07:04:41;;;;;;;20.80;12.20;;;;;;;12.81;nan;-24174.66;4948338;28;20704;-72
2022/04/07 07:07:06;;;;;;;21.45;10.88;;;;;;;13.08;nan;-24182.25;4947896;28;20194;-72
2022/04/07 07:09:32;;;;;;;18.38;11.82;;;;;;;12.58;nan;-24168.19;4947053;28;20295;-73
2022/04/07 07:11:57;;;;;;;22.55;12.20;;;;;;;12.63;nan;-24169.59;4948994;28;20213;-72
2022/04/07 07:14:23;;;;;;;18.65;12.50;;;;;;;12.29;nan;-24160.19;4946816;28;21886;-72
2022/04/07 07:16:48;;;;;;;18.23;11.95;;;;;;;12.71;nan;-24171.84;4949440;28;20187;-73
2022/04/07 07:19:16;;;;;;;20.52;12.02;;;;;;;12.70;nan;-24171.56;4947315;28;20308;-74
2022/04/07 07:21:41;;;;;;;18.67;11.75;;;;;;;13.29;nan;-24188.03;4950596;28;20278;-72
2022/04/07 07:24:07;;;;;;;21.10;11.30;;;;;;;13.16;nan;-24184.50;4949631;28;20680;-72
2022/04/07 07:26:33;;;;;;;18.58;11.52;;;;;;;13.24;nan;-24186.63;4946202;28;20193;-73
2022/04/07 07:28:59;;;;;;;20.13;11.77;;;;;;;13.52;nan;-24194.47;4953693;28;20232;-73
2022/04/07 07:31:24;;;;;;;19.13;12.13;;;;;;;13.40;nan;-24190.97;4954137;28;20205;-73
2022/04/07 07:33:50;;;;;;;17.98;11.05;;;;;;;13.27;nan;-24187.59;4949989;28;20823;-74
2022/04/07 07:36:15;;;;;;;21.67;11.85;;;;;;;13.67;nan;-24198.56;4952163;28;20272;-73
2022/04/07 07:38:41;;;;;;;18.25;11.32;;;;;;;13.85;nan;-24203.47;4953043;28;20217;-74
2022/04/07 07:41:06;;;;;;;17.65;10.57;;;;;;;13.87;nan;-24204.03;4951039;28;20183;-74
2022/04/07 07:43:32;;;;;;;18.85;11.23;;;;;;;13.81;nan;-24202.50;4955981;28;20657;-73
2022/04/07 07:45:57;;;;;;;19.70;12.05;;;;;;;13.97;nan;-24206.97;4951563;28;20213;-72
2022/04/07 07:48:32;;;;;;;15.85;10.25;;;;;;;13.45;nan;-24192.38;4950916;28;20184;-74
2022/04/07 07:50:58;;;;;;;17.88;10.50;;;;;;;13.77;nan;-24201.22;4945339;28;20327;-68
2022/04/07 07:53:23;;;;;;;16.63;11.35;;;;;;;14.36;nan;-24217.66;4944920;29;20308;-71
2022/04/07 07:55:49;;;;;;;17.17;11.45;;;;;;;14.36;nan;-24217.66;4942453;29;20555;-70
2022/04/07 07:58:15;;;;;;;15.18;10.25;;;;;;;14.33;nan;-24216.94;4942010;29;20182;-71
2022/04/07 08:00:40;;;;;;;17.92;10.63;;;;;;;14.68;nan;-24226.63;4941199;29;21538;-73
2022/04/07 08:03:06;;;;;;;17.02;11.70;;;;;;;14.96;nan;-24234.31;4942421;29;20194;-71
2022/04/07 08:05:31;;;;;;;17.33;10.75;;;;;;;15.33;nan;-24244.56;4943229;29;20669;-68
2022/04/07 08:07:57;;;;;;;16.63;11.27;;;;;;;15.54;nan;-24250.44;4942348;29;20181;-75
2022/04/07 08:10:22;;;;;;;20.13;11.60;;;;;;;14.75;nan;-24228.44;4944374;29;20209;-67
2022/04/07 08:12:48;;;;;;;21.10;12.25;;;;;;;14.41;nan;-24219.03;4942031;29;20245;-72
2022/04/07 08:15:13;;;;;;;16.23;11.38;;;;;;;13.90;nan;-24204.88;4942416;29;20193;-72
2022/04/07 08:17:39;;;;;;;17.42;11.13;;;;;;;14.69;nan;-24226.91;4938236;29;20190;-72
2022/04/07 08:20:07;;;;;;;18.05;11.68;;;;;;;14.10;nan;-24210.63;4939015;29;20666;-69
2022/04/07 08:22:32;;;;;;;16.95;11.55;;;;;;;14.16;nan;-24212.16;4940426;28;20201;-68
2022/04/07 08:24:57;;;;;;;24.65;12.73;;;;;;;14.02;nan;-24208.25;4944642;28;20573;-68
2022/04/07 08:27:26;;;;;;;17.40;12.57;;;;;;;14.50;nan;-24221.56;4938917;29;20329;-67
2022/04/07 08:29:52;;;;;;;25.10;12.18;;;;;;;14.32;nan;-24216.50;4940728;29;20210;-69
2022/04/07 08:32:17;;;;;;;17.50;11.88;;;;;;;14.10;nan;-24210.63;4940555;29;20912;-69
2022/04/07 08:34:43;;;;;;;15.55;11.60;;;;;;;14.05;nan;-24209.09;4941833;29;20221;-66
2022/04/07 08:37:08;;;;;;;17.95;11.80;;;;;;;13.89;nan;-24204.72;4954991;29;20182;-69
2022/04/07 08:39:34;;;;;;;20.85;11.75;;;;;;;13.82;nan;-24202.78;4952301;28;20198;-72
2022/04/07 08:42:01;;;;;;;19.02;11.02;;;;;;;13.76;nan;-24201.09;4954674;29;20170;-69
2022/04/07 08:44:31;;;;;;;21.58;11.35;;;;;;;13.77;nan;-24201.22;4955177;29;20857;-68
2022/04/07 08:46:59;;;;;;;19.73;12.18;;;;;;;14.18;nan;-24212.59;4954126;28;20230;-69
2022/04/07 08:49:28;;;;;;;20.70;12.43;;;;;;;13.88;nan;-24204.44;4954522;29;20760;-71
2022/04/07 08:51:54;;;;;;;22.52;11.88;;;;;;;14.40;nan;-24218.75;4953337;29;20232;-69
2022/04/07 08:54:20;;;;;;;22.33;12.20;;;;;;;14.29;nan;-24215.69;4953374;29;20182;-67
2022/04/07 08:56:49;;;;;;;20.00;12.40;;;;;;;14.07;nan;-24209.78;4953192;29;22248;-69
2022/04/07 08:59:16;;;;;;;21.83;11.75;;;;;;;14.28;nan;-24215.41;4953746;28;20205;-66
2022/04/07 09:01:42;;;;;;;20.02;11.93;;;;;;;14.00;nan;-24207.81;4954822;28;20584;-68
2022/04/07 09:04:10;;;;;;;20.90;12.23;;;;;;;14.50;nan;-24221.56;4954905;28;20252;-66
2022/04/07 09:06:38;;;;;;;19.20;12.57;;;;;;;14.71;nan;-24227.47;4955629;28;20211;-68
2022/04/07 09:09:12;;;;;;;21.13;12.80;;;;;;;14.07;nan;-24209.63;4954915;29;20569;-66
2022/04/07 09:11:37;;;;;;;16.73;11.63;;;;;;;14.37;nan;-24217.94;4954755;28;20314;-70
2022/04/07 09:14:03;;;;;;;18.50;12.32;;;;;;;14.65;nan;-24225.78;4939808;29;20182;-70
2022/04/07 09:16:28;;;;;;;17.27;12.45;;;;;;;14.44;nan;-24220.03;4954027;29;20200;-68
2022/04/07 09:18:54;;;;;;;21.50;11.80;;;;;;;14.05;nan;-24209.09;4953313;29;20178;-69
2022/04/07 09:21:27;;;;;;;22.30;13.00;;;;;;;14.51;nan;-24221.84;4954166;29;20178;-70
2022/04/07 09:23:54;;;;;;;23.00;13.00;;;;;;;14.20;nan;-24213.28;4952653;29;20529;-68
2022/04/07 09:26:20;;;;;;;18.75;13.20;;;;;;;14.63;nan;-24225.22;4954265;29;20677;-69
2022/04/07 09:28:45;;;;;;;21.95;13.48;;;;;;;14.41;nan;-24219.03;4954007;28;20185;-68
2022/04/07 09:31:16;;;;;;;21.45;12.55;;;;;;;14.22;nan;-24213.72;4954348;29;20573;-66
2022/04/07 09:33:42;;;;;;;16.63;12.07;;;;;;;14.21;nan;-24213.56;4954544;29;20654;-70
2022/04/07 09:36:19;;;;;;;17.02;11.70;;;;;;;14.06;nan;-24209.34;4930524;29;20253;-69
2022/04/07 09:38:49;;;;;;;20.90;12.63;;;;;;;14.21;nan;-24213.44;4954610;28;20178;-68
2022/04/07 09:41:15;;;;;;;19.60;12.55;;;;;;;14.25;nan;-24214.69;4954527;29;20185;-68
2022/04/07 09:44:01;;;;;;;17.48;12.48;;;;;;;14.57;nan;-24223.53;4954023;29;20182;-67
2022/04/07 09:46:38;;;;;;;20.00;11.98;;;;;;;14.79;nan;-24229.56;4953847;29;20200;-68
2022/04/07 09:49:14;;;;;;;20.98;12.18;;;;;;;14.59;nan;-24224.09;4954161;28;20170;-66
2022/04/07 09:51:47;;;;;;;21.55;13.00;;;;;;;14.62;nan;-24224.94;4971993;28;20319;-66
2022/04/07 09:54:16;;;;;;;20.00;13.23;;;;;;;14.70;nan;-24227.03;4955777;28;20678;-70
2022/04/07 09:56:43;;;;;;;22.55;12.35;;;;;;;14.90;nan;-24232.78;4961204;28;20194;-67
2022/04/07 09:59:09;;;;;;;22.90;12.43;;;;;;;14.80;nan;-24229.97;4956269;28;20177;-67
2022/04/07 10:01:41;;;;;;;19.75;12.77;;;;;;;15.02;nan;-24236.00;4957026;28;20621;-66
2022/04/07 10:04:08;;;;;;;21.83;12.48;;;;;;;15.47;nan;-24248.63;4967442;28;20215;-69
2022/04/07 10:06:34;;;;;;;20.55;12.80;;;;;;;15.62;nan;-24252.69;4953212;28;20181;-70
2022/04/07 10:09:05;;;;;;;21.95;12.95;;;;;;;15.90;nan;-24260.50;4952568;28;20182;-66
2022/04/07 10:11:31;;;;;;;23.17;13.02;;;;;;;16.17;nan;-24267.78;4950354;28;20609;-68
2022/04/07 10:13:58;;;;;;;21.73;13.02;;;;;;;16.35;nan;-24272.81;4952404;28;20649;-69
2022/04/07 10:16:25;;;;;;;21.58;12.20;;;;;;;16.85;nan;-24286.50;4954998;28;20190;-70
2022/04/07 10:19:01;;;;;;;18.27;12.02;;;;;;;17.14;nan;-24294.63;4959535;28;20217;-68
2022/04/07 10:21:51;;;;;;;21.10;13.07;;;;;;;16.99;nan;-24290.56;4962904;28;20186;-67
2022/04/07 10:24:47;;;;;;;21.98;12.95;;;;;;;16.96;nan;-24289.72;4953539;29;20719;-67
2022/04/07 10:27:18;;;;;;;21.10;13.05;;;;;;;16.91;nan;-24288.34;4935022;29;20170;-70
2022/04/07 10:30:01;;;;;;;19.20;12.55;;;;;;;16.66;nan;-24281.50;4934447;29;20191;-67
2022/04/07 10:32:38;;;;;;;18.65;12.98;;;;;;;16.87;nan;-24287.22;4934046;29;20242;-70
2022/04/07 10:35:04;;;;;;;20.77;12.48;;;;;;;17.10;nan;-24293.63;4934743;29;20587;-68
2022/04/07 10:37:44;;;;;;;22.17;12.63;;;;;;;17.05;nan;-24292.09;4934451;29;20273;-70
2022/04/07 10:40:50;;;;;;;21.75;12.55;;;;;;;17.18;nan;-24295.72;4948842;28;20185;-70
2022/04/07 10:43:25;;;;;;;23.13;11.88;;;;;;;17.45;nan;-24303.13;4955708;28;20174;-66
2022/04/07 10:46:05;;;;;;;18.85;12.52;;;;;;;17.72;nan;-24310.53;4980635;28;20197;-70
2022/04/07 10:48:35;;;;;;;20.40;12.43;;;;;;;17.39;nan;-24301.59;4956909;28;20177;-69
2022/04/07 10:51:11;;;;;;;19.83;11.10;;;;;;;17.61;nan;-24307.59;4973031;28;20562;-69
2022/04/07 10:53:41;;;;;;;16.73;11.00;;;;;;;17.91;nan;-24315.97;4955362;28;20197;-71
2022/04/07 10:56:08;;;;;;;19.65;11.02;;;;;;;17.59;nan;-24307.03;4939542;28;20194;-70
2022/04/07 10:58:45;;;;;;;17.48;10.60;;;;;;;17.77;nan;-24312.06;4972721;28;20200;-66
2022/04/07 11:01:37;;;;;;;17.40;10.43;;;;;;;17.96;nan;-24317.22;4963761;28;20188;-71
2022/04/07 11:04:23;;;;;;;15.80;10.73;;;;;;;17.47;nan;-24303.81;4930770;29;20657;-68
2022/04/07 11:09:54;;;;;;;17.02;11.27;;;;;;;17.64;nan;-24308.56;4944025;28;20212;-76
2022/04/07 11:12:23;;;;;;;15.82;9.25;;;;;;;17.98;nan;-24317.78;4927943;29;20617;-75
2022/04/07 11:14:51;;;;;;;17.90;10.05;;;;;;;18.46;nan;-24331.16;4952108;28;20193;-76
2022/04/07 11:17:37;;;;;;;16.15;9.77;;;;;;;19.42;nan;-24357.59;4943022;28;20693;-75
2022/04/07 11:20:23;;;;;;;20.85;11.95;;;;;;;18.71;nan;-24337.84;4951960;28;20185;-75
2022/04/07 11:22:53;;;;;;;17.63;10.65;;;;;;;18.86;nan;-24342.03;4952773;28;20190;-75
2022/04/07 11:25:24;;;;;;;20.73;11.65;;;;;;;19.02;nan;-24346.34;4952345;28;20174;-75
2022/04/07 11:28:03;;;;;;;17.52;11.30;;;;;;;18.49;nan;-24332.00;4951653;28;20178;-75
2022/04/07 11:30:36;;;;;;;24.85;10.77;;;;;;;18.49;nan;-24331.84;4952984;28;20213;-74
2022/04/07 11:33:26;;;;;;;16.77;11.70;;;;;;;18.13;nan;-24321.97;4951739;28;20182;-75
2022/04/07 11:36:00;;;;;;;17.33;11.00;;;;;;;17.48;nan;-24304.09;4959369;28;20547;-74